Time;durP1;ratioP1;P1;durP2;ratioP2;P2;SDS_P1;SDS_P2;PMS_P1;PMS_P2;Temp;Humidity;BMP_temperature;BMP_pressure;BME280_temperature;BME280_humidity;BME280_pressure;Samples;Min_cycle;Max_cycle;Signal;HPM_P1;HPM_P2
2021/04/16 00:00:46;;;;;;;0.43;0.20;;;7.60;50.00;;;;;;4967537;28;20031;-82
2021/04/16 00:03:12;;;;;;;0.10;0.00;;;7.50;50.30;;;;;;4967963;28;20034;-79
2021/04/16 00:05:39;;;;;;;4.28;0.22;;;7.50;50.50;;;;;;4975482;28;20034;-79
2021/04/16 00:08:07;;;;;;;0.10;0.00;;;7.50;50.60;;;;;;4990944;28;20062;-79
2021/04/16 00:10:39;;;;;;;0.20;0.10;;;7.40;50.80;;;;;;4991611;28;20018;-79
2021/04/16 00:13:05;;;;;;;1.55;0.65;;;7.40;51.20;;;;;;4974951;28;20039;-79
2021/04/16 00:15:32;;;;;;;0.82;0.30;;;7.40;51.20;;;;;;4990230;28;20033;-81
2021/04/16 00:17:58;;;;;;;1.00;0.20;;;7.40;51.30;;;;;;4991278;28;20042;-79
2021/04/16 00:20:26;;;;;;;3.92;0.35;;;7.30;51.40;;;;;;4974773;28;20419;-79
2021/04/16 00:22:52;;;;;;;0.40;0.20;;;7.30;51.60;;;;;;4989629;28;20053;-79
2021/04/16 00:25:19;;;;;;;0.10;0.08;;;7.30;52.00;;;;;;4991382;28;20026;-79
2021/04/16 00:27:46;;;;;;;0.00;0.00;;;7.30;51.80;;;;;;4991185;28;20041;-78
2021/04/16 00:30:12;;;;;;;0.55;0.25;;;7.30;51.80;;;;;;4990055;28;20042;-78
2021/04/16 00:32:38;;;;;;;0.65;0.05;;;7.20;51.80;;;;;;4989901;28;20411;-79
2021/04/16 00:35:06;;;;;;;2.13;0.20;;;7.20;52.00;;;;;;4991521;28;20022;-79
2021/04/16 00:37:32;;;;;;;3.08;0.43;;;7.20;52.10;;;;;;4974309;28;20042;-78
2021/04/16 00:39:58;;;;;;;1.55;0.20;;;7.20;52.00;;;;;;4991026;28;20034;-78
2021/04/16 00:42:25;;;;;;;0.65;0.20;;;7.20;52.00;;;;;;4991113;28;20064;-79
2021/04/16 00:44:51;;;;;;;0.22;0.17;;;7.20;51.90;;;;;;4991866;28;20045;-80
2021/04/16 00:47:18;;;;;;;0.10;0.10;;;7.20;52.10;;;;;;4964461;28;740263;-79
2021/04/16 00:49:50;;;;;;;0.30;0.15;;;7.20;52.10;;;;;;4987267;28;20049;-79
2021/04/16 00:52:34;;;;;;;0.32;0.00;;;7.20;52.10;;;;;;4974541;28;20368;-80
2021/04/16 00:55:00;;;;;;;0.93;0.50;;;7.20;52.00;;;;;;4975458;28;20026;-78
2021/04/16 00:57:26;;;;;;;0.50;0.13;;;7.20;52.10;;;;;;4991890;28;20042;-78
2021/04/16 00:59:55;;;;;;;0.38;0.20;;;7.10;52.20;;;;;;4992732;28;20527;-80
2021/04/16 01:02:22;;;;;;;0.52;0.28;;;7.10;52.30;;;;;;4988352;28;20053;-80
2021/04/16 01:04:48;;;;;;;1.08;0.28;;;7.10;52.50;;;;;;4990910;28;20391;-80
2021/04/16 01:07:14;;;;;;;2.80;1.13;;;7.10;52.60;;;;;;4991142;28;20081;-78
2021/04/16 01:09:41;;;;;;;0.20;0.00;;;7.00;52.60;;;;;;4991123;28;20030;-78
2021/04/16 01:12:08;;;;;;;0.03;0.00;;;7.00;52.70;;;;;;4990732;28;20301;-79
2021/04/16 01:14:35;;;;;;;2.05;0.30;;;7.00;52.80;;;;;;4990635;28;20030;-78
2021/04/16 01:17:01;;;;;;;0.57;0.10;;;7.00;52.80;;;;;;4989875;28;20480;-79
2021/04/16 01:19:49;;;;;;;0.15;0.10;;;7.00;52.90;;;;;;4976991;28;20043;-78
2021/04/16 01:22:45;;;;;;;0.00;0.00;;;6.90;53.00;;;;;;4990349;28;20042;-79
2021/04/16 01:25:12;;;;;;;0.47;0.00;;;6.90;53.20;;;;;;4992115;28;20037;-78
2021/04/16 01:27:38;;;;;;;0.25;0.08;;;6.80;53.40;;;;;;4972207;28;20400;-79
2021/04/16 01:30:09;;;;;;;0.15;0.08;;;6.80;53.50;;;;;;4991241;28;20038;-78
2021/04/16 01:32:36;;;;;;;0.80;0.38;;;6.80;53.70;;;;;;4975171;28;20411;-79
2021/04/16 01:35:05;;;;;;;0.80;0.17;;;6.70;53.70;;;;;;4990700;28;20483;-79
2021/04/16 01:37:31;;;;;;;0.30;0.10;;;6.70;53.80;;;;;;4957569;28;20039;-80
2021/04/16 01:39:57;;;;;;;0.15;0.00;;;6.70;53.80;;;;;;4973124;28;20047;-78
2021/04/16 01:42:23;;;;;;;0.17;0.00;;;6.70;53.80;;;;;;4968478;28;20049;-79
2021/04/16 01:44:49;;;;;;;1.52;0.10;;;6.70;54.10;;;;;;4993545;28;20479;-79
2021/04/16 01:47:16;;;;;;;0.35;0.10;;;6.60;54.20;;;;;;4994006;28;20430;-80
2021/04/16 01:49:47;;;;;;;0.57;0.38;;;6.60;54.50;;;;;;4977949;28;20038;-78
2021/04/16 01:52:14;;;;;;;;;;;6.60;54.40;;;;;;5011356;28;20054;-80
2021/04/16 01:54:42;;;;;;;0.20;0.17;;;6.60;54.40;;;;;;4976898;28;19910;-80
2021/04/16 01:57:18;;;;;;;0.13;0.10;;;6.60;54.40;;;;;;4994169;28;20045;-79
2021/04/16 01:59:44;;;;;;;2.92;0.20;;;6.50;54.50;;;;;;4995561;28;20357;-78
2021/04/16 02:02:13;;;;;;;0.00;0.00;;;6.50;54.60;;;;;;4971480;28;20035;-79
2021/04/16 02:04:39;;;;;;;0.17;0.10;;;6.50;54.60;;;;;;4988450;28;20039;-78
2021/04/16 02:07:05;;;;;;;0.20;0.20;;;6.50;54.90;;;;;;4986209;28;20029;-78
2021/04/16 02:09:33;;;;;;;0.85;0.50;;;6.40;55.00;;;;;;4990934;28;20030;-78
2021/04/16 02:11:59;;;;;;;0.30;0.15;;;6.40;55.00;;;;;;4988281;28;20557;-78
2021/04/16 02:14:26;;;;;;;0.10;0.00;;;6.40;54.80;;;;;;4975016;28;20360;-78
2021/04/16 02:16:54;;;;;;;0.20;0.20;;;6.40;55.00;;;;;;4974772;28;20038;-78
2021/04/16 02:19:20;;;;;;;0.10;0.10;;;6.40;55.00;;;;;;4975386;28;20053;-78
2021/04/16 02:21:46;;;;;;;1.55;0.75;;;6.40;55.10;;;;;;4990594;28;20495;-78
2021/04/16 02:24:13;;;;;;;0.40;0.10;;;6.30;55.20;;;;;;4986147;28;20030;-78
2021/04/16 02:26:39;;;;;;;0.00;0.00;;;6.30;55.50;;;;;;4988537;28;20039;-78
2021/04/16 02:29:06;;;;;;;1.13;0.80;;;6.30;55.70;;;;;;4973620;28;20038;-78
2021/04/16 02:31:32;;;;;;;0.28;0.10;;;6.20;56.20;;;;;;4989723;28;20404;-78
2021/04/16 02:33:58;;;;;;;0.00;0.00;;;6.20;56.30;;;;;;4972452;28;20038;-79
2021/04/16 02:36:24;;;;;;;0.10;0.05;;;6.10;56.30;;;;;;4989070;28;20039;-78
2021/04/16 02:38:54;;;;;;;1.33;0.87;;;6.10;56.30;;;;;;4993567;28;20046;-79
2021/04/16 02:41:21;;;;;;;0.10;0.00;;;6.10;56.30;;;;;;4993660;28;20034;-78
2021/04/16 02:43:47;;;;;;;0.20;0.10;;;6.10;56.60;;;;;;4992674;28;20218;-78
2021/04/16 02:46:13;;;;;;;7.63;0.67;;;6.00;56.50;;;;;;4977126;28;20411;-80
2021/04/16 02:48:39;;;;;;;0.28;0.05;;;6.10;56.50;;;;;;4976875;28;20045;-79
2021/04/16 02:51:05;;;;;;;3.40;0.57;;;6.10;56.60;;;;;;4994059;28;20057;-78
2021/04/16 02:53:32;;;;;;;0.00;0.00;;;6.00;56.70;;;;;;4994027;28;20045;-78
2021/04/16 02:55:58;;;;;;;0.10;0.00;;;6.00;56.90;;;;;;4992298;28;20030;-78
2021/04/16 02:58:24;;;;;;;0.63;0.10;;;6.00;56.90;;;;;;4992773;28;20026;-79
2021/04/16 03:00:51;;;;;;;0.32;0.28;;;6.00;56.90;;;;;;4993035;28;20484;-78
2021/04/16 03:03:17;;;;;;;0.22;0.10;;;6.00;57.00;;;;;;4993316;28;20046;-78
2021/04/16 03:05:43;;;;;;;3.50;0.60;;;5.90;57.00;;;;;;4994376;28;20038;-78
2021/04/16 03:08:09;;;;;;;0.30;0.00;;;5.90;57.10;;;;;;4992682;28;20041;-78
2021/04/16 03:10:36;;;;;;;0.17;0.13;;;5.90;57.20;;;;;;4973128;28;20043;-80
2021/04/16 03:13:02;;;;;;;0.63;0.25;;;5.90;57.20;;;;;;4991904;28;20042;-79
2021/04/16 03:15:29;;;;;;;0.63;0.10;;;5.90;57.30;;;;;;4976859;28;20042;-78
2021/04/16 03:17:55;;;;;;;0.80;0.20;;;5.90;57.30;;;;;;4992802;28;20471;-79
2021/04/16 03:20:21;;;;;;;0.50;0.30;;;5.90;57.30;;;;;;4992715;28;20049;-78
2021/04/16 03:22:48;;;;;;;0.97;0.53;;;5.80;57.30;;;;;;4989840;28;20043;-79
2021/04/16 03:25:14;;;;;;;0.23;0.20;;;5.90;57.40;;;;;;4976796;28;20029;-78
2021/04/16 03:27:40;;;;;;;0.37;0.00;;;5.90;57.40;;;;;;4994095;28;20022;-78
2021/04/16 03:30:09;;;;;;;2.28;0.32;;;5.90;57.40;;;;;;4992361;28;20034;-79
2021/04/16 03:32:35;;;;;;;0.10;0.00;;;5.80;57.50;;;;;;4991945;28;20046;-80
2021/04/16 03:35:01;;;;;;;0.67;0.10;;;5.80;57.60;;;;;;4992335;28;20038;-79
2021/04/16 03:37:27;;;;;;;0.27;0.10;;;5.80;57.60;;;;;;4975761;28;20053;-78
2021/04/16 03:39:53;;;;;;;0.40;0.20;;;5.80;57.70;;;;;;4993542;28;20045;-79
2021/04/16 03:42:19;;;;;;;0.28;0.15;;;5.70;57.80;;;;;;4972850;28;20049;-82
2021/04/16 03:44:45;;;;;;;0.15;0.05;;;5.70;57.80;;;;;;4982897;28;20038;-79
2021/04/16 03:47:11;;;;;;;0.17;0.10;;;5.70;57.90;;;;;;4992040;28;20050;-80
2021/04/16 03:49:37;;;;;;;0.50;0.27;;;5.70;58.10;;;;;;4992490;28;20034;-78
2021/04/16 03:52:04;;;;;;;1.83;1.43;;;5.70;58.20;;;;;;4992458;28;20502;-78
2021/04/16 03:54:30;;;;;;;0.90;0.10;;;5.60;58.30;;;;;;4993289;28;20042;-78
2021/04/16 03:56:56;;;;;;;0.17;0.10;;;5.60;58.50;;;;;;4991361;28;20034;-79
2021/04/16 03:59:23;;;;;;;0.47;0.30;;;5.60;58.50;;;;;;4976107;28;20045;-79
2021/04/16 04:01:49;;;;;;;0.37;0.27;;;5.50;58.30;;;;;;4992216;28;20039;-81
2021/04/16 04:04:16;;;;;;;0.43;0.37;;;5.60;58.30;;;;;;4976728;28;20057;-79
2021/04/16 04:06:42;;;;;;;0.00;0.00;;;5.60;58.30;;;;;;4972522;28;20047;-78
2021/04/16 04:09:08;;;;;;;1.17;0.53;;;5.60;58.20;;;;;;4982711;28;20054;-78
2021/04/16 04:11:34;;;;;;;0.83;0.20;;;5.60;58.10;;;;;;4974623;28;20049;-78
2021/04/16 04:14:01;;;;;;;0.37;0.20;;;5.60;58.00;;;;;;4992321;28;20042;-78
2021/04/16 04:16:28;;;;;;;0.70;0.50;;;5.60;58.00;;;;;;4990490;28;20035;-78
2021/04/16 04:18:54;;;;;;;2.30;0.70;;;5.60;58.00;;;;;;4992246;28;20467;-78
2021/04/16 04:21:21;;;;;;;0.50;0.33;;;5.60;57.90;;;;;;4994046;28;20487;-78
2021/04/16 04:23:47;;;;;;;1.57;0.73;;;5.60;57.80;;;;;;4975678;28;20038;-78
2021/04/16 04:26:13;;;;;;;0.67;0.07;;;5.60;57.90;;;;;;4975485;28;20040;-78
2021/04/16 04:28:39;;;;;;;1.77;0.50;;;5.60;57.90;;;;;;4959238;28;20057;-78
2021/04/16 04:31:05;;;;;;;5.90;0.70;;;5.60;57.90;;;;;;4991340;28;20031;-78
2021/04/16 04:33:31;;;;;;;0.93;0.53;;;5.60;58.00;;;;;;4971774;28;20439;-78
2021/04/16 04:35:57;;;;;;;0.10;0.07;;;5.60;57.90;;;;;;4982462;28;20030;-76
2021/04/16 04:38:23;;;;;;;0.20;0.10;;;5.60;58.00;;;;;;4973986;28;20526;-79
2021/04/16 04:40:50;;;;;;;0.63;0.43;;;5.60;58.10;;;;;;4991054;28;20030;-78
2021/04/16 04:43:16;;;;;;;0.70;0.37;;;5.50;58.00;;;;;;4991944;28;20030;-79
2021/04/16 04:45:42;;;;;;;0.60;0.30;;;5.50;58.00;;;;;;4989435;28;20038;-80
2021/04/16 04:48:09;;;;;;;0.63;0.60;;;5.60;58.00;;;;;;4991653;28;20046;-80
2021/04/16 04:50:35;;;;;;;1.37;0.47;;;5.60;57.90;;;;;;4991965;28;20030;-81
2021/04/16 04:53:01;;;;;;;2.05;1.05;;;5.60;57.80;;;;;;4988619;28;20459;-82
2021/04/16 04:55:29;;;;;;;0.07;0.00;;;5.60;57.80;;;;;;4991251;28;20019;-81
2021/04/16 04:57:57;;;;;;;2.77;0.63;;;5.60;57.80;;;;;;4974562;28;20045;-81
2021/04/16 05:00:24;;;;;;;4.77;0.43;;;5.60;57.70;;;;;;4973444;28;20468;-79
2021/04/16 05:02:50;;;;;;;0.97;0.53;;;5.60;57.70;;;;;;4991221;28;20030;-80
2021/04/16 05:05:16;;;;;;;0.87;0.63;;;5.60;57.60;;;;;;4992875;28;20044;-80
2021/04/16 05:07:42;;;;;;;0.85;0.55;;;5.60;57.60;;;;;;4970647;28;20038;-80
2021/04/16 05:10:09;;;;;;;0.40;0.30;;;5.60;57.60;;;;;;4975831;28;20490;-78
2021/04/16 05:12:35;;;;;;;1.10;0.60;;;5.70;57.60;;;;;;4975096;28;20047;-80
2021/04/16 05:15:01;;;;;;;0.85;0.55;;;5.60;57.60;;;;;;4989404;28;20038;-79
2021/04/16 05:17:28;;;;;;;2.43;1.10;;;5.60;57.60;;;;;;4991634;28;20430;-79
2021/04/16 05:19:54;;;;;;;0.60;0.57;;;5.60;57.60;;;;;;4976499;28;20042;-79
2021/04/16 05:22:20;;;;;;;3.30;0.63;;;5.60;57.60;;;;;;4978016;28;20490;-79
2021/04/16 05:24:46;;;;;;;0.75;0.40;;;5.60;57.60;;;;;;4994991;28;20034;-79
2021/04/16 05:27:20;;;;;;;1.47;0.73;;;5.60;57.50;;;;;;4995662;28;20034;-79
2021/04/16 05:29:46;;;;;;;2.92;1.00;;;5.60;57.50;;;;;;4994206;28;20026;-79
2021/04/16 05:32:13;;;;;;;1.40;0.30;;;5.60;57.60;;;;;;4994682;28;20053;-82
2021/04/16 05:34:41;;;;;;;0.93;0.40;;;5.60;57.50;;;;;;4977466;28;20037;-81
2021/04/16 05:37:07;;;;;;;0.40;0.30;;;5.60;57.50;;;;;;4995142;28;20031;-82
2021/04/16 05:39:33;;;;;;;0.67;0.47;;;5.60;57.50;;;;;;4993533;28;20042;-85
2021/04/16 05:41:59;;;;;;;1.60;0.87;;;5.60;57.40;;;;;;4995794;28;20041;-81
2021/04/16 05:44:25;;;;;;;3.20;1.17;;;5.70;57.40;;;;;;4997628;28;20041;-81
2021/04/16 05:46:51;;;;;;;0.80;0.47;;;5.70;57.40;;;;;;4997711;28;20407;-84
2021/04/16 05:49:18;;;;;;;2.13;0.93;;;5.70;57.40;;;;;;4995646;28;20064;-82
2021/04/16 05:51:44;;;;;;;0.63;0.40;;;5.70;57.40;;;;;;4994570;28;20042;-82
2021/04/16 05:54:10;;;;;;;0.53;0.40;;;5.80;57.30;;;;;;4997346;28;20042;-81
2021/04/16 05:56:36;;;;;;;1.27;0.60;;;5.90;57.30;;;;;;4995015;28;20051;-81
2021/04/16 05:59:02;;;;;;;6.90;0.53;;;5.90;57.10;;;;;;4977425;28;20047;-81
2021/04/16 06:01:28;;;;;;;1.75;0.50;;;6.00;57.10;;;;;;4992909;28;20041;-84
2021/04/16 06:03:55;;;;;;;2.67;0.45;;;6.00;57.20;;;;;;4995136;28;20049;-80
2021/04/16 06:06:21;;;;;;;0.60;0.43;;;6.10;57.00;;;;;;4994039;28;20026;-81
2021/04/16 06:08:47;;;;;;;1.42;0.28;;;6.20;57.00;;;;;;4993561;28;20063;-80
2021/04/16 06:11:13;;;;;;;2.13;0.85;;;6.30;56.90;;;;;;4994765;28;20371;-82
2021/04/16 06:13:39;;;;;;;0.35;0.15;;;6.40;56.80;;;;;;4993225;28;20038;-82
2021/04/16 06:16:06;;;;;;;1.88;0.52;;;6.60;56.70;;;;;;4994016;28;20042;-82
2021/04/16 06:18:33;;;;;;;2.33;1.27;;;6.70;56.60;;;;;;4993768;28;20030;-85
2021/04/16 06:20:59;;;;;;;2.22;1.02;;;6.90;56.60;;;;;;4992052;28;20041;-80
2021/04/16 06:23:25;;;;;;;1.30;0.43;;;7.10;56.50;;;;;;4991644;28;20034;-80
2021/04/16 06:25:51;;;;;;;1.67;0.45;;;7.30;56.30;;;;;;4993907;28;20030;-82
2021/04/16 06:28:18;;;;;;;15.32;0.63;;;7.40;56.00;;;;;;4992964;28;20034;-82
2021/04/16 06:30:44;;;;;;;0.68;0.40;;;7.50;56.00;;;;;;4976030;28;20041;-85
2021/04/16 06:33:25;;;;;;;3.42;1.20;;;7.70;55.90;;;;;;4990953;28;20395;-83
2021/04/16 06:35:56;;;;;;;2.53;0.63;;;7.70;55.90;;;;;;4981519;28;20022;-82
2021/04/16 06:38:26;;;;;;;;;;;7.80;55.80;;;;;;4991586;28;20037;-84
2021/04/16 06:40:54;;;;;;;2.15;1.08;;;7.80;55.90;;;;;;4993936;28;19910;-84
2021/04/16 06:43:21;;;;;;;0.10;0.10;;;7.90;56.40;;;;;;4960772;28;20038;-82
2021/04/16 06:45:52;;;;;;;2.10;0.65;;;7.90;56.00;;;;;;5005575;28;20034;-81
2021/04/16 06:48:18;;;;;;;1.38;0.82;;;7.90;56.00;;;;;;4973730;28;20093;-85
2021/04/16 06:50:44;;;;;;;1.98;0.60;;;8.00;56.00;;;;;;4959269;28;20038;-81
2021/04/16 06:53:25;;;;;;;0.57;0.32;;;8.10;56.00;;;;;;5006547;28;20043;-81
2021/04/16 06:56:04;;;;;;;1.08;0.68;;;8.20;56.00;;;;;;4976474;28;20414;-84
2021/04/16 06:58:34;;;;;;;4.43;1.08;;;8.20;56.10;;;;;;4991337;28;20034;-84
2021/04/16 07:01:10;;;;;;;0.63;0.47;;;8.20;56.10;;;;;;4990720;28;20507;-86
2021/04/16 07:03:41;;;;;;;1.27;0.47;;;8.30;56.20;;;;;;4975367;28;20022;-88
2021/04/16 07:06:23;;;;;;;2.92;0.88;;;8.40;56.10;;;;;;4974722;28;20038;-91
2021/04/16 07:09:08;;;;;;;2.92;0.75;;;8.50;56.10;;;;;;4991257;28;20041;-88
2021/04/16 07:11:46;;;;;;;2.92;0.80;;;8.60;56.00;;;;;;4989424;28;20030;-83
2021/04/16 07:14:30;;;;;;;2.53;0.82;;;8.60;55.90;;;;;;4988502;28;20144;-85
2021/04/16 07:16:56;;;;;;;0.98;0.40;;;8.70;56.40;;;;;;4987983;28;20030;-83
2021/04/16 07:19:24;;;;;;;0.85;0.32;;;8.80;55.80;;;;;;4976405;28;20039;-81
2021/04/16 07:22:00;;;;;;;0.10;0.10;;;8.90;55.80;;;;;;4987838;28;20026;-81
2021/04/16 07:24:26;;;;;;;2.38;0.82;;;9.20;55.80;;;;;;4989155;28;20042;-80
2021/04/16 07:26:56;;;;;;;1.45;0.10;;;9.40;55.40;;;;;;4988543;28;20034;-80
2021/04/16 07:29:49;;;;;;;1.13;0.47;;;9.70;55.10;;;;;;4991069;28;20033;-82
2021/04/16 07:32:29;;;;;;;1.98;0.85;;;9.80;54.90;;;;;;5003238;28;20034;-82
2021/04/16 07:34:58;;;;;;;1.60;0.60;;;9.80;54.90;;;;;;4987317;28;20037;-82
2021/04/16 07:37:27;;;;;;;0.00;0.00;;;9.80;54.80;;;;;;4974138;28;20034;-82
2021/04/16 07:40:08;;;;;;;1.77;0.80;;;10.00;54.70;;;;;;4981959;28;20399;-82
2021/04/16 07:42:47;;;;;;;0.00;0.00;;;10.10;54.50;;;;;;4985224;28;20019;-82
2021/04/16 07:45:25;;;;;;;1.48;0.55;;;10.10;54.40;;;;;;4982147;28;20038;-82
2021/04/16 07:48:16;;;;;;;2.00;0.82;;;10.20;54.40;;;;;;4980581;28;20049;-82
2021/04/16 07:50:43;;;;;;;0.03;0.00;;;10.30;54.30;;;;;;4986709;28;20034;-83
2021/04/16 07:53:30;;;;;;;2.75;0.80;;;10.50;54.00;;;;;;4980874;28;20057;-85
2021/04/16 07:56:15;;;;;;;2.40;1.23;;;10.70;53.70;;;;;;4981671;28;20037;-85
2021/04/16 07:59:01;;;;;;;1.88;0.55;;;10.90;53.40;;;;;;4980009;28;20026;-84
2021/04/16 08:01:29;;;;;;;2.28;0.45;;;11.00;53.20;;;;;;4976942;28;20042;-85
2021/04/16 08:04:01;;;;;;;0.75;0.55;;;11.00;53.10;;;;;;4988177;28;20030;-85
2021/04/16 08:06:42;;;;;;;1.17;0.47;;;11.10;53.00;;;;;;4992302;28;20030;-88
2021/04/16 08:09:26;;;;;;;0.93;0.50;;;11.20;53.00;;;;;;4989525;28;20030;-84
2021/04/16 08:12:09;;;;;;;0.73;0.40;;;11.20;52.80;;;;;;4987628;28;20472;-82
2021/04/16 08:14:38;;;;;;;1.95;0.80;;;11.30;52.70;;;;;;4973372;28;20049;-85
2021/04/16 08:17:14;;;;;;;3.30;0.82;;;11.40;52.60;;;;;;4980493;28;20042;-84
2021/04/16 08:19:40;;;;;;;1.58;0.32;;;11.40;52.50;;;;;;4992573;28;20034;-87
2021/04/16 08:22:17;;;;;;;1.13;0.75;;;11.50;52.30;;;;;;4990346;28;20042;-86
2021/04/16 08:25:08;;;;;;;1.00;0.40;;;11.60;52.20;;;;;;4973416;28;20503;-86
2021/04/16 08:27:41;;;;;;;3.38;0.30;;;11.80;52.10;;;;;;5020484;28;20026;-86
2021/04/16 08:30:29;;;;;;;0.75;0.55;;;11.90;51.80;;;;;;4989343;28;20388;-74
2021/04/16 08:33:16;;;;;;;2.15;0.95;;;12.10;51.60;;;;;;4971854;28;20038;-80
2021/04/16 08:36:11;;;;;;;1.00;0.52;;;12.10;51.10;;;;;;4979623;28;20037;-81
2021/04/16 08:38:59;;;;;;;0.50;0.38;;;12.20;51.20;;;;;;5003452;28;20053;-85
2021/04/16 08:41:27;;;;;;;1.58;0.70;;;12.20;51.10;;;;;;4985577;28;20052;-86
2021/04/16 08:44:01;;;;;;;1.40;0.93;;;12.20;50.90;;;;;;5003842;28;20026;-83
2021/04/16 08:46:30;;;;;;;0.80;0.50;;;12.20;50.90;;;;;;4978806;28;20415;-86
2021/04/16 08:48:58;;;;;;;2.03;0.93;;;12.20;51.00;;;;;;4983805;28;20026;-84
2021/04/16 08:51:28;;;;;;;1.58;0.35;;;12.20;50.90;;;;;;4980372;28;20392;-87
2021/04/16 08:54:04;;;;;;;3.33;0.70;;;12.40;50.70;;;;;;4979427;28;20038;-85
2021/04/16 08:56:34;;;;;;;2.70;1.02;;;12.60;50.50;;;;;;4973579;28;20027;-84
2021/04/16 08:59:09;;;;;;;3.17;0.68;;;12.80;50.10;;;;;;4995556;28;20046;-84
2021/04/16 09:01:37;;;;;;;1.85;0.50;;;13.00;49.70;;;;;;4993972;28;20039;-84
2021/04/16 09:04:21;;;;;;;3.60;0.70;;;13.10;49.50;;;;;;4978835;28;20038;-88
2021/04/16 09:06:49;;;;;;;1.05;0.45;;;13.20;49.40;;;;;;5009909;28;20054;-85
2021/04/16 09:09:40;;;;;;;1.40;1.20;;;13.30;49.30;;;;;;4995410;28;20026;-85
2021/04/16 09:12:06;;;;;;;0.38;0.17;;;13.40;49.10;;;;;;4995318;28;20033;-81
2021/04/16 09:14:32;;;;;;;0.52;0.20;;;13.60;49.00;;;;;;4995925;28;20386;-78
2021/04/16 09:16:59;;;;;;;0.22;0.10;;;13.60;48.60;;;;;;4991173;28;20027;-76
2021/04/16 09:19:26;;;;;;;2.72;1.08;;;13.60;48.50;;;;;;4974181;28;20035;-76
2021/04/16 09:22:04;;;;;;;1.85;0.50;;;13.70;48.40;;;;;;4985303;28;20483;-79
2021/04/16 09:24:55;;;;;;;1.90;1.25;;;13.70;48.30;;;;;;4989332;28;20027;-76
2021/04/16 09:27:40;;;;;;;0.85;0.22;;;13.80;48.20;;;;;;4975990;28;20034;-82
2021/04/16 09:30:07;;;;;;;2.63;0.55;;;14.00;48.60;;;;;;4991763;28;20034;-75
2021/04/16 09:32:33;;;;;;;1.65;0.47;;;14.10;47.50;;;;;;4991933;28;20042;-76
2021/04/16 09:35:18;;;;;;;2.10;1.23;;;14.00;47.10;;;;;;4994157;28;20050;-79
2021/04/16 09:38:17;;;;;;;0.20;0.17;;;13.90;47.10;;;;;;4992431;28;20035;-82
2021/04/16 09:40:43;;;;;;;0.25;0.20;;;13.90;47.00;;;;;;5001412;28;20053;-83
2021/04/16 09:43:09;;;;;;;0.25;0.25;;;13.90;46.80;;;;;;4996259;28;20034;-79
2021/04/16 09:45:35;;;;;;;1.27;0.63;;;13.90;46.60;;;;;;4997729;28;20037;-84
2021/04/16 09:48:06;;;;;;;1.17;0.77;;;13.90;46.10;;;;;;4998607;28;20046;-84
2021/04/16 09:50:39;;;;;;;0.00;0.00;;;14.00;46.10;;;;;;4975149;28;20030;-90
2021/04/16 09:53:11;;;;;;;1.50;0.70;;;14.00;45.90;;;;;;5024802;28;20030;-89
2021/04/16 09:55:48;;;;;;;0.13;0.10;;;14.20;45.70;;;;;;4995824;28;20391;-81
2021/04/16 09:58:29;;;;;;;1.23;0.57;;;14.30;45.50;;;;;;5009703;28;20049;-84
2021/04/16 10:00:55;;;;;;;;;;;14.40;45.30;;;;;;4990553;28;20508;-86
2021/04/16 10:03:41;;;;;;;1.58;0.93;;;14.50;45.00;;;;;;5001180;28;19916;-91
2021/04/16 10:06:27;;;;;;;1.05;0.38;;;14.50;44.80;;;;;;4990492;28;20483;-87
2021/04/16 10:09:23;;;;;;;0.20;0.10;;;14.70;44.70;;;;;;4991475;28;20039;-83
2021/04/16 10:12:14;;;;;;;1.08;0.40;;;14.70;44.10;;;;;;4988421;28;20046;-82
2021/04/16 10:14:41;;;;;;;0.47;0.13;;;14.70;44.10;;;;;;4991113;28;20045;-84
2021/04/16 10:17:15;;;;;;;1.40;0.70;;;14.70;43.80;;;;;;4974498;28;20034;-82
2021/04/16 10:19:49;;;;;;;0.20;0.20;;;14.70;43.70;;;;;;5005840;28;20040;-86
2021/04/16 10:22:29;;;;;;;1.98;0.40;;;14.80;43.60;;;;;;4975867;28;20050;-80
2021/04/16 12:37:59;;;;;;;3.20;0.32;;;15.50;38.40;;;;;;4947031;28;20040;-80
2021/04/16 12:40:26;;;;;;;0.85;0.30;;;15.70;38.30;;;;;;4919338;29;20058;-82
2021/04/16 12:42:53;;;;;;;0.60;0.20;;;15.90;38.00;;;;;;4908143;29;20048;-80
2021/04/16 12:45:19;;;;;;;0.35;0.10;;;16.00;37.60;;;;;;4939579;28;20068;-80
2021/04/16 12:47:45;;;;;;;0.10;0.00;;;15.90;37.30;;;;;;4921566;29;20064;-80
2021/04/16 12:50:14;;;;;;;1.75;0.60;;;15.80;37.30;;;;;;4915615;29;20592;-79
2021/04/16 12:52:40;;;;;;;0.28;0.17;;;15.50;37.20;;;;;;4935659;29;20050;-81
2021/04/16 12:55:06;;;;;;;1.60;0.20;;;15.40;37.50;;;;;;4980859;28;20073;-79
2021/04/16 12:57:41;;;;;;;1.15;0.50;;;15.40;37.20;;;;;;4989756;28;20403;-79
2021/04/16 13:00:13;;;;;;;0.22;0.15;;;15.50;37.20;;;;;;4985873;28;20050;-80
2021/04/16 13:02:39;;;;;;;6.55;0.52;;;15.70;36.90;;;;;;4970195;28;20720;-79
2021/04/16 13:05:07;;;;;;;3.13;0.77;;;15.90;36.50;;;;;;4987247;28;20045;-79
2021/04/16 13:07:34;;;;;;;1.10;0.45;;;16.00;36.20;;;;;;4973173;28;20062;-78
2021/04/16 13:10:00;;;;;;;0.95;0.30;;;16.10;36.10;;;;;;4985882;28;20035;-78
2021/04/16 13:12:26;;;;;;;0.93;0.30;;;16.20;36.10;;;;;;4987821;28;20043;-78
2021/04/16 13:14:52;;;;;;;1.90;0.32;;;16.10;35.60;;;;;;4987945;28;20042;-78
2021/04/16 13:17:20;;;;;;;1.25;0.38;;;15.80;35.60;;;;;;4984862;28;20522;-78
2021/04/16 13:19:46;;;;;;;9.00;1.73;;;15.60;35.80;;;;;;4979335;28;20034;-78
2021/04/16 13:22:14;;;;;;;0.47;0.22;;;15.40;35.70;;;;;;4969134;28;20038;-79
2021/04/16 13:24:40;;;;;;;1.63;0.80;;;15.40;35.80;;;;;;4986274;28;20039;-78
2021/04/16 13:27:09;;;;;;;1.55;0.63;;;15.50;35.40;;;;;;4986535;28;20034;-79
2021/04/16 13:29:36;;;;;;;1.05;0.73;;;15.60;35.10;;;;;;4969715;28;20027;-80
2021/04/16 13:32:02;;;;;;;0.98;0.25;;;15.70;35.00;;;;;;4988480;28;20034;-81
2021/04/16 13:34:29;;;;;;;0.22;0.08;;;15.80;34.50;;;;;;4973300;28;20049;-81
2021/04/16 13:36:55;;;;;;;1.80;1.08;;;15.70;34.30;;;;;;4984799;28;20603;-86
2021/04/16 13:39:21;;;;;;;1.48;0.68;;;15.60;34.40;;;;;;4988740;28;20034;-83
2021/04/16 13:41:47;;;;;;;1.50;0.35;;;15.50;34.70;;;;;;4991826;28;20046;-83
2021/04/16 13:44:15;;;;;;;0.35;0.10;;;15.40;34.80;;;;;;4991080;28;20046;-83
2021/04/16 13:46:43;;;;;;;1.92;0.35;;;15.40;34.80;;;;;;4991900;28;20043;-81
2021/04/16 13:49:10;;;;;;;1.75;0.32;;;15.50;35.40;;;;;;4970878;28;20049;-82
2021/04/16 13:51:36;;;;;;;1.85;0.50;;;15.60;34.50;;;;;;4967940;28;20365;-84
2021/04/16 13:54:06;;;;;;;0.95;0.20;;;15.60;34.40;;;;;;5003410;28;20049;-83
2021/04/16 13:56:33;;;;;;;0.57;0.28;;;15.60;35.10;;;;;;5019838;28;20045;-80
2021/04/16 13:58:59;;;;;;;1.17;0.32;;;15.60;34.30;;;;;;4984256;28;20038;-79
2021/04/16 14:01:25;;;;;;;1.17;0.68;;;15.60;34.50;;;;;;4982881;28;20530;-83
2021/04/16 14:03:56;;;;;;;1.27;0.57;;;15.60;34.50;;;;;;4980592;28;20037;-83
2021/04/16 14:06:24;;;;;;;0.68;0.20;;;15.70;34.60;;;;;;4982757;28;20499;-84
2021/04/16 14:08:59;;;;;;;0.73;0.30;;;15.60;34.10;;;;;;4999834;28;20384;-83
2021/04/16 14:11:26;;;;;;;1.17;0.40;;;15.50;34.20;;;;;;5021407;28;20023;-81
2021/04/16 14:13:52;;;;;;;0.45;0.20;;;15.40;34.40;;;;;;5024138;28;20136;-81
2021/04/16 14:16:34;;;;;;;1.23;0.22;;;15.30;34.40;;;;;;4991850;28;20034;-85
2021/04/16 14:19:03;;;;;;;0.05;0.05;;;15.30;34.40;;;;;;4989187;28;20034;-83
2021/04/16 14:21:29;;;;;;;0.25;0.00;;;15.30;34.20;;;;;;4990357;28;20049;-86
2021/04/16 14:23:55;;;;;;;0.00;0.00;;;15.20;34.10;;;;;;4972547;28;20483;-85
2021/04/16 14:26:22;;;;;;;0.00;0.00;;;15.10;34.10;;;;;;5024177;28;20038;-87
2021/04/16 14:28:48;;;;;;;2.60;1.13;;;15.00;34.00;;;;;;4993288;28;20046;-79
2021/04/16 14:31:14;;;;;;;0.82;0.10;;;14.90;34.60;;;;;;4973217;28;20034;-79
2021/04/16 14:33:41;;;;;;;0.43;0.08;;;14.80;34.20;;;;;;4988313;28;20042;-81
2021/04/16 14:36:07;;;;;;;0.88;0.50;;;14.90;34.10;;;;;;4991597;28;20037;-79
2021/04/16 14:38:33;;;;;;;1.48;0.68;;;14.90;33.80;;;;;;4991079;28;20050;-80
2021/04/16 14:41:07;;;;;;;4.18;1.65;;;14.90;33.80;;;;;;4988766;28;20034;-81
2021/04/16 14:43:33;;;;;;;1.50;0.65;;;14.90;33.90;;;;;;4985296;28;20041;-79
2021/04/16 14:45:59;;;;;;;1.00;0.47;;;14.80;34.00;;;;;;4984868;28;20050;-77
2021/04/16 14:48:26;;;;;;;0.80;0.30;;;14.80;34.00;;;;;;4990360;28;20487;-78
2021/04/16 14:50:54;;;;;;;0.15;0.10;;;14.70;34.00;;;;;;4989472;28;20042;-79
2021/04/16 14:53:22;;;;;;;0.00;0.00;;;14.70;34.00;;;;;;4989015;28;20111;-79
2021/04/16 14:55:49;;;;;;;0.80;0.38;;;14.60;33.90;;;;;;5007918;28;20038;-79
2021/04/16 14:58:21;;;;;;;0.77;0.40;;;14.70;33.90;;;;;;4989795;28;20023;-78
2021/04/16 15:00:47;;;;;;;0.00;0.00;;;14.70;33.80;;;;;;4987601;28;20049;-78
2021/04/16 15:03:13;;;;;;;0.10;0.10;;;14.70;33.70;;;;;;5021322;28;20370;-81
2021/04/16 15:05:39;;;;;;;2.58;0.08;;;14.60;33.80;;;;;;4989491;28;20049;-81
2021/04/16 15:08:10;;;;;;;0.00;0.00;;;14.60;33.70;;;;;;4991796;28;20037;-82
2021/04/16 15:10:44;;;;;;;1.08;0.35;;;14.50;33.70;;;;;;4959096;28;20043;-83
2021/04/16 15:13:21;;;;;;;4.45;0.52;;;14.50;33.70;;;;;;5023225;28;20050;-81
2021/04/16 15:15:47;;;;;;;0.38;0.13;;;14.50;34.10;;;;;;4987395;28;20373;-80
2021/04/16 15:18:17;;;;;;;0.63;0.38;;;14.50;33.90;;;;;;5020907;28;20026;-79